Time;durP1;ratioP1;P1;durP2;ratioP2;P2;SDS_P1;SDS_P2;PMS_P1;PMS_P2;Temp;Humidity;BMP_temperature;BMP_pressure;BME280_temperature;BME280_humidity;BME280_pressure;Samples;Min_cycle;Max_cycle;Signal;HPM_P1;HPM_P2
2022/03/19 00:01:53;;;;;;;17.75;5.80;;;4.30;99.90;;;;;;4961219;28;90039;-34
2022/03/19 00:04:19;;;;;;;14.30;5.30;;;4.30;99.90;;;;;;4960852;28;88390;-34
2022/03/19 00:06:47;;;;;;;11.73;6.07;;;4.30;99.90;;;;;;4961105;28;90749;-35
2022/03/19 00:09:13;;;;;;;16.38;6.22;;;4.30;99.90;;;;;;4961282;28;89843;-31
2022/03/19 00:11:40;;;;;;;16.95;6.90;;;4.30;99.90;;;;;;4960678;28;90105;-32
2022/03/19 00:14:06;;;;;;;16.42;6.13;;;4.30;99.90;;;;;;4987940;23;90040;-32
2022/03/19 00:16:32;;;;;;;11.10;6.05;;;4.30;99.90;;;;;;4942003;28;89962;-33
2022/03/19 00:18:59;;;;;;;12.27;6.72;;;4.30;99.90;;;;;;4940603;28;89070;-33
2022/03/19 00:21:25;;;;;;;14.98;5.55;;;4.30;99.90;;;;;;4941077;28;89520;-34
2022/03/19 00:23:50;;;;;;;17.80;6.05;;;4.30;99.90;;;;;;4941693;28;87885;-31
2022/03/19 00:26:17;;;;;;;15.63;6.95;;;4.20;99.90;;;;;;4941177;28;90066;-33
2022/03/19 00:28:43;;;;;;;11.48;5.90;;;4.20;99.90;;;;;;4941484;28;89657;-32
2022/03/19 00:31:09;;;;;;;16.42;6.22;;;4.20;99.90;;;;;;4940584;28;89415;-33
2022/03/19 00:33:35;;;;;;;14.85;6.97;;;4.10;99.90;;;;;;4941526;28;89090;-34
2022/03/19 00:36:00;;;;;;;15.73;6.00;;;4.20;99.90;;;;;;4941411;28;90353;-32
2022/03/19 00:38:26;;;;;;;18.48;5.85;;;4.10;99.90;;;;;;4940405;28;89838;-31
2022/03/19 00:40:52;;;;;;;16.15;6.43;;;4.10;99.90;;;;;;4941168;28;90269;-35
2022/03/19 00:43:21;;;;;;;14.50;6.40;;;4.00;99.90;;;;;;4940954;28;88001;-35
2022/03/19 00:45:50;;;;;;;10.63;6.18;;;4.00;99.90;;;;;;4940602;28;90808;-32
2022/03/19 00:48:16;;;;;;;;;;;3.90;99.90;;;;;;4941526;28;90026;-34
2022/03/19 00:50:43;;;;;;;9.90;6.03;;;3.90;99.90;;;;;;4942015;28;89011;-31
2022/03/19 00:53:08;;;;;;;16.60;6.70;;;3.80;99.90;;;;;;4941494;28;89792;-35
2022/03/19 00:55:34;;;;;;;18.10;6.43;;;3.80;99.90;;;;;;4939697;28;90449;-32
2022/03/19 00:57:59;;;;;;;12.25;5.45;;;3.80;99.90;;;;;;4941455;28;89465;-34
2022/03/19 01:00:26;;;;;;;13.80;6.07;;;3.80;99.90;;;;;;4940171;28;90160;-32
2022/03/19 01:02:53;;;;;;;16.75;5.65;;;3.70;99.90;;;;;;4940542;28;89418;-34
2022/03/19 01:05:20;;;;;;;16.90;6.13;;;3.70;99.90;;;;;;4940612;28;90296;-33
2022/03/19 01:07:50;;;;;;;16.73;5.50;;;3.70;99.90;;;;;;4940004;28;88566;-34
2022/03/19 01:10:20;;;;;;;19.90;6.18;;;3.60;99.90;;;;;;4940830;28;90084;-35
2022/03/19 01:12:47;;;;;;;15.88;6.95;;;3.60;99.90;;;;;;4940259;28;88024;-32
2022/03/19 01:15:13;;;;;;;11.40;6.03;;;3.50;99.90;;;;;;4939853;28;90285;-32
2022/03/19 01:17:39;;;;;;;18.08;6.50;;;3.50;99.90;;;;;;4940635;28;89812;-33
2022/03/19 01:20:06;;;;;;;17.75;6.32;;;3.50;99.90;;;;;;4940953;28;89601;-31
2022/03/19 01:22:32;;;;;;;12.93;5.90;;;3.50;99.90;;;;;;4940743;28;87769;-31
2022/03/19 01:25:03;;;;;;;11.55;5.55;;;3.50;99.90;;;;;;4940107;28;90415;-32
2022/03/19 01:27:29;;;;;;;16.80;6.22;;;3.50;99.90;;;;;;4940007;28;91314;-35
2022/03/19 01:29:55;;;;;;;13.55;5.82;;;3.50;99.90;;;;;;4940759;28;90521;-30
2022/03/19 01:32:21;;;;;;;13.15;5.30;;;3.50;99.90;;;;;;4940606;28;88750;-33
2022/03/19 01:34:46;;;;;;;20.23;6.35;;;3.50;99.90;;;;;;4939986;28;90387;-32
2022/03/19 01:37:12;;;;;;;11.90;5.25;;;3.40;99.90;;;;;;4939798;28;88281;-33
2022/03/19 01:39:38;;;;;;;10.77;6.07;;;3.40;99.90;;;;;;4939921;28;89878;-36
2022/03/19 01:42:04;;;;;;;12.70;6.13;;;3.40;99.90;;;;;;4940498;28;89128;-32
2022/03/19 01:44:30;;;;;;;17.08;6.90;;;3.40;99.90;;;;;;4940238;28;90415;-32
2022/03/19 01:46:59;;;;;;;11.93;6.38;;;3.40;99.90;;;;;;4940012;28;88982;-33
2022/03/19 01:49:25;;;;;;;16.48;6.78;;;3.40;99.90;;;;;;4940497;28;89694;-31
2022/03/19 01:51:52;;;;;;;21.70;6.32;;;3.50;99.90;;;;;;4939419;28;89053;-33
2022/03/19 01:54:22;;;;;;;18.30;5.65;;;3.50;99.90;;;;;;4939845;28;88761;-34
2022/03/19 01:56:49;;;;;;;14.43;6.90;;;3.50;99.90;;;;;;4939420;28;88714;-34
2022/03/19 01:59:16;;;;;;;19.75;6.18;;;3.60;99.90;;;;;;4940182;28;89699;-31
2022/03/19 02:01:43;;;;;;;16.67;6.25;;;3.60;99.90;;;;;;4938515;28;89450;-32
2022/03/19 02:04:09;;;;;;;15.38;6.35;;;3.50;99.90;;;;;;4939803;28;90137;-34
2022/03/19 02:06:36;;;;;;;11.68;6.00;;;3.50;99.90;;;;;;4941073;28;89869;-32
2022/03/19 02:09:03;;;;;;;10.45;6.72;;;3.50;99.90;;;;;;4943678;28;90432;-32
2022/03/19 02:11:29;;;;;;;11.18;6.18;;;3.50;99.90;;;;;;4943184;28;88460;-34
2022/03/19 02:13:55;;;;;;;18.30;5.97;;;3.50;99.90;;;;;;4942902;28;90553;-36
2022/03/19 02:16:20;;;;;;;19.23;6.82;;;3.60;99.90;;;;;;4942815;28;89708;-35
2022/03/19 02:18:46;;;;;;;15.55;6.38;;;3.50;99.90;;;;;;4943173;28;90491;-37
2022/03/19 02:21:12;;;;;;;14.18;6.25;;;3.50;99.90;;;;;;4943570;28;88674;-34
2022/03/19 02:26:22;;;;;;;17.73;6.55;;;3.50;99.90;;;;;;4943425;28;89523;-35
2022/03/19 02:28:47;;;;;;;9.98;6.15;;;3.50;99.90;;;;;;4942701;28;89566;-36
2022/03/19 02:31:13;;;;;;;17.52;7.20;;;3.50;99.90;;;;;;4942879;28;88911;-32
2022/03/19 02:33:39;;;;;;;18.25;6.32;;;3.50;99.90;;;;;;4943010;28;91357;-32
2022/03/19 02:36:05;;;;;;;16.95;6.20;;;3.40;99.90;;;;;;4942440;28;89588;-34
2022/03/19 02:38:30;;;;;;;14.55;7.07;;;3.40;99.90;;;;;;4942978;28;88568;-36
2022/03/19 02:40:56;;;;;;;21.20;7.30;;;3.40;99.90;;;;;;4942078;28;90368;-36
2022/03/19 02:43:21;;;;;;;19.38;6.15;;;3.40;99.90;;;;;;4943058;28;90114;-33
2022/03/19 02:45:47;;;;;;;11.07;6.35;;;3.30;99.90;;;;;;4942343;28;90366;-33
2022/03/19 02:48:13;;;;;;;14.70;6.30;;;3.30;99.90;;;;;;4942739;28;89551;-34
2022/03/19 02:50:38;;;;;;;20.58;6.90;;;3.30;99.90;;;;;;4942778;28;88009;-31
2022/03/19 02:53:10;;;;;;;14.95;6.97;;;3.20;99.90;;;;;;4942910;28;89355;-32
2022/03/19 02:55:39;;;;;;;13.13;7.20;;;3.20;99.90;;;;;;4942626;28;90155;-33
2022/03/19 02:58:06;;;;;;;16.02;6.43;;;3.30;99.90;;;;;;4942023;28;89319;-35
2022/03/19 03:00:32;;;;;;;14.88;7.32;;;3.30;99.90;;;;;;4942593;28;90124;-31
2022/03/19 03:02:58;;;;;;;15.05;6.75;;;3.30;99.90;;;;;;4942432;28;90293;-34
2022/03/19 03:05:24;;;;;;;12.95;7.32;;;3.30;99.90;;;;;;4941969;28;90644;-36
2022/03/19 03:07:50;;;;;;;15.73;7.53;;;3.30;99.90;;;;;;4942069;28;90660;-34
2022/03/19 03:10:16;;;;;;;14.93;7.50;;;3.30;99.90;;;;;;4942598;28;88952;-31
2022/03/19 03:12:42;;;;;;;17.17;7.95;;;3.30;99.90;;;;;;4942306;28;90407;-31
2022/03/19 03:15:09;;;;;;;13.93;7.85;;;3.20;99.90;;;;;;4942623;28;89667;-31
2022/03/19 03:17:35;;;;;;;18.25;8.15;;;3.20;99.90;;;;;;4941198;28;89420;-38
2022/03/19 03:20:02;;;;;;;13.68;7.50;;;3.20;99.90;;;;;;4941812;28;89726;-33
2022/03/19 03:22:28;;;;;;;14.68;6.65;;;3.20;99.90;;;;;;4942430;28;90046;-33
2022/03/19 03:24:54;;;;;;;15.32;7.53;;;3.20;99.90;;;;;;4942027;28;91281;-33
2022/03/19 03:27:21;;;;;;;20.10;7.35;;;3.10;99.90;;;;;;4942240;28;89347;-32
2022/03/19 03:29:46;;;;;;;12.07;8.00;;;3.10;99.90;;;;;;4942216;28;89808;-31
2022/03/19 03:32:12;;;;;;;9.77;8.60;;;3.10;99.90;;;;;;4941284;28;89187;-33
2022/03/19 03:34:38;;;;;;;16.45;7.72;;;3.10;99.90;;;;;;4942089;28;89633;-35
2022/03/19 03:37:04;;;;;;;19.50;9.00;;;3.10;99.90;;;;;;4942224;28;89766;-33
2022/03/19 03:39:30;;;;;;;15.88;7.70;;;3.10;99.90;;;;;;4942464;28;89132;-36
2022/03/19 03:41:56;;;;;;;18.67;8.48;;;3.00;99.90;;;;;;4942021;28;89112;-33
2022/03/19 03:44:21;;;;;;;15.63;7.85;;;3.10;99.90;;;;;;4941376;28;89785;-36
2022/03/19 03:46:48;;;;;;;13.80;6.95;;;3.00;99.90;;;;;;4941949;28;89879;-33
2022/03/19 03:49:14;;;;;;;21.90;8.18;;;3.00;99.90;;;;;;4942462;28;89427;-31
2022/03/19 03:51:40;;;;;;;15.15;8.45;;;3.00;99.90;;;;;;4941403;28;90240;-33
2022/03/19 03:54:06;;;;;;;14.50;7.68;;;3.00;99.90;;;;;;4941143;28;91196;-34
2022/03/19 03:56:32;;;;;;;18.63;9.13;;;3.00;99.90;;;;;;4941440;28;89844;-32
2022/03/19 03:58:57;;;;;;;14.05;7.47;;;3.00;99.90;;;;;;4941717;28;89314;-35
2022/03/19 04:01:23;;;;;;;20.55;9.98;;;3.00;99.90;;;;;;4941914;28;89206;-33
2022/03/19 04:03:49;;;;;;;20.25;8.43;;;3.00;99.90;;;;;;4939176;28;89602;-32
2022/03/19 04:06:14;;;;;;;11.18;7.80;;;3.00;99.90;;;;;;4941858;28;89572;-33
2022/03/19 04:08:40;;;;;;;20.55;8.75;;;2.90;99.90;;;;;;4940970;28;89348;-31
2022/03/19 04:11:05;;;;;;;15.85;8.95;;;2.90;99.90;;;;;;4941952;28;90344;-33
2022/03/19 04:13:31;;;;;;;17.40;9.40;;;2.90;99.90;;;;;;4941318;28;89921;-35
2022/03/19 04:15:57;;;;;;;12.52;8.68;;;2.90;99.90;;;;;;4940923;28;89436;-33
2022/03/19 04:18:22;;;;;;;19.73;9.05;;;2.90;99.90;;;;;;4941334;28;90106;-33
2022/03/19 04:20:48;;;;;;;16.58;8.25;;;2.90;99.90;;;;;;4940587;28;90229;-32
2022/03/19 04:23:13;;;;;;;18.05;8.48;;;2.90;99.90;;;;;;4941669;28;89928;-31
2022/03/19 04:25:40;;;;;;;22.25;9.52;;;2.90;99.90;;;;;;4940924;28;88540;-30
2022/03/19 04:28:05;;;;;;;12.68;8.55;;;2.90;99.90;;;;;;4942127;28;89823;-30
2022/03/19 04:30:31;;;;;;;25.33;8.82;;;2.90;99.90;;;;;;4939938;28;89961;-32
2022/03/19 04:32:59;;;;;;;14.52;8.75;;;2.90;99.90;;;;;;4940440;28;89468;-36
2022/03/19 04:38:13;;;;;;;17.75;8.82;;;2.80;99.90;;;;;;4942041;28;88794;-31
2022/03/19 04:40:40;;;;;;;15.20;9.25;;;2.80;99.90;;;;;;4941078;28;90596;-32
2022/03/19 04:43:07;;;;;;;14.73;7.93;;;2.70;99.90;;;;;;4940260;28;93042;-30
2022/03/19 04:45:33;;;;;;;21.05;9.63;;;2.70;99.90;;;;;;4941151;28;90380;-34
2022/03/19 04:47:58;;;;;;;14.80;9.13;;;2.80;99.90;;;;;;4941007;28;89349;-31
2022/03/19 04:50:24;;;;;;;19.25;8.65;;;2.80;99.90;;;;;;4940949;28;90637;-36
2022/03/19 04:52:50;;;;;;;16.33;9.45;;;2.80;99.90;;;;;;4940991;28;89599;-31
2022/03/19 04:55:16;;;;;;;17.60;9.05;;;2.80;99.90;;;;;;4940444;28;89690;-34
2022/03/19 04:57:42;;;;;;;16.77;9.02;;;2.90;99.90;;;;;;4940880;28;88196;-36
2022/03/19 05:00:11;;;;;;;21.17;9.25;;;2.90;99.90;;;;;;4941178;28;89102;-34
2022/03/19 05:02:36;;;;;;;16.42;9.30;;;2.90;99.90;;;;;;4940209;28;89779;-36
2022/03/19 05:05:02;;;;;;;18.13;9.35;;;2.90;99.90;;;;;;4940298;28;89506;-33
2022/03/19 05:07:28;;;;;;;27.75;9.55;;;2.90;99.90;;;;;;4941180;28;88390;-33
2022/03/19 05:12:40;;;;;;;17.50;9.23;;;2.80;99.90;;;;;;4940920;28;90114;-31
2022/03/19 05:15:10;;;;;;;16.17;9.45;;;2.80;99.90;;;;;;4940184;28;89305;-31
2022/03/19 05:17:35;;;;;;;22.52;11.30;;;2.80;99.90;;;;;;4940166;28;89627;-32
2022/03/19 05:20:01;;;;;;;20.50;10.52;;;2.80;99.90;;;;;;4939537;28;89890;-34
2022/03/19 05:22:29;;;;;;;14.18;10.35;;;2.90;99.90;;;;;;4939986;28;89764;-31
2022/03/19 05:24:56;;;;;;;19.53;10.47;;;2.90;99.90;;;;;;4939803;28;89609;-31
2022/03/19 05:27:22;;;;;;;15.95;10.82;;;2.90;99.90;;;;;;4939560;28;89695;-32
2022/03/19 05:29:48;;;;;;;19.98;9.13;;;2.90;99.90;;;;;;4939923;28;90174;-32
2022/03/19 05:32:14;;;;;;;20.15;10.82;;;2.90;99.90;;;;;;4939921;28;91066;-32
2022/03/19 05:34:40;;;;;;;18.48;10.02;;;2.90;99.90;;;;;;4939181;28;89396;-35
2022/03/19 05:37:06;;;;;;;16.33;10.02;;;2.90;99.90;;;;;;4939224;28;87828;-35
2022/03/19 05:39:33;;;;;;;21.27;11.15;;;2.90;99.90;;;;;;4939187;28;90860;-32
2022/03/19 05:41:59;;;;;;;18.77;11.50;;;2.90;99.90;;;;;;4943050;28;89295;-32
2022/03/19 05:44:24;;;;;;;16.77;11.25;;;3.00;99.90;;;;;;4946679;28;88592;-33
2022/03/19 05:46:50;;;;;;;18.80;10.65;;;3.00;99.90;;;;;;4945718;28;89658;-31
2022/03/19 05:49:16;;;;;;;14.10;10.10;;;3.00;99.90;;;;;;4946310;28;90094;-32
2022/03/19 05:51:42;;;;;;;25.80;12.07;;;3.00;99.90;;;;;;4945288;28;89573;-32
2022/03/19 05:54:09;;;;;;;13.32;10.73;;;3.10;99.90;;;;;;4946257;28;89419;-33
2022/03/19 05:56:35;;;;;;;17.92;10.48;;;3.10;99.90;;;;;;4945420;28;88724;-34
2022/03/19 05:59:00;;;;;;;27.77;11.38;;;3.10;99.90;;;;;;4945680;28;90245;-34
2022/03/19 06:01:26;;;;;;;18.80;10.73;;;3.00;99.90;;;;;;4945740;28;89774;-30
2022/03/19 06:03:57;;;;;;;19.20;10.68;;;3.00;99.90;;;;;;4945586;28;89375;-32
2022/03/19 06:06:23;;;;;;;15.93;10.30;;;2.90;99.90;;;;;;4945878;28;89113;-32
2022/03/19 06:08:48;;;;;;;18.17;12.00;;;2.90;99.90;;;;;;4945105;28;90185;-33
2022/03/19 06:11:14;;;;;;;28.95;13.38;;;2.90;99.90;;;;;;4945419;28;89567;-30
2022/03/19 06:13:40;;;;;;;19.20;10.55;;;2.90;99.90;;;;;;4945050;28;89775;-30
2022/03/19 06:16:06;;;;;;;19.05;11.50;;;3.00;99.90;;;;;;4945787;28;87515;-35
2022/03/19 06:18:31;;;;;;;17.70;9.65;;;3.00;99.90;;;;;;4945478;28;90343;-32
2022/03/19 06:20:57;;;;;;;13.63;10.00;;;3.10;99.90;;;;;;4945147;28;90266;-34
2022/03/19 06:23:24;;;;;;;19.00;10.13;;;3.20;99.90;;;;;;4945680;28;90311;-29
2022/03/19 06:25:50;;;;;;;23.50;10.30;;;3.20;99.90;;;;;;4944856;28;88672;-34
2022/03/19 06:28:16;;;;;;;13.18;8.38;;;3.30;99.90;;;;;;4945565;28;89877;-32
2022/03/19 06:30:42;;;;;;;14.85;9.88;;;3.40;99.90;;;;;;4946098;28;89872;-32
2022/03/19 06:33:08;;;;;;;13.88;9.25;;;3.40;99.90;;;;;;4945874;28;89845;-35
2022/03/19 06:38:21;;;;;;;22.58;11.73;;;3.50;99.90;;;;;;4945981;28;89407;-33
2022/03/19 06:40:47;;;;;;;16.02;9.75;;;3.50;99.90;;;;;;4945237;28;89784;-35
2022/03/19 06:43:13;;;;;;;19.77;11.15;;;3.60;99.90;;;;;;4946316;28;89360;-33
2022/03/19 06:45:38;;;;;;;15.95;10.68;;;3.60;99.90;;;;;;4944276;28;90453;-31
2022/03/19 06:48:05;;;;;;;17.52;10.93;;;3.70;99.90;;;;;;4944530;28;90460;-33
2022/03/19 06:50:31;;;;;;;21.40;9.48;;;3.80;99.90;;;;;;4945147;28;89404;-31
2022/03/19 06:52:56;;;;;;;18.35;10.38;;;3.80;99.90;;;;;;4942670;28;89240;-34
2022/03/19 06:55:22;;;;;;;23.25;10.93;;;3.90;99.90;;;;;;4941380;28;89101;-34
2022/03/19 06:57:48;;;;;;;11.98;9.30;;;4.00;99.90;;;;;;4941791;28;90135;-31
2022/03/19 07:00:13;;;;;;;15.27;9.25;;;4.10;99.90;;;;;;4941731;28;89779;-33
2022/03/19 07:02:50;;;;;;;20.55;10.35;;;4.10;99.90;;;;;;4942346;28;90038;-34
2022/03/19 07:05:24;;;;;;;16.30;9.25;;;4.20;99.90;;;;;;4941557;28;88093;-30
2022/03/19 07:07:50;;;;;;;28.23;11.45;;;4.40;99.90;;;;;;4942573;28;90088;-32
2022/03/19 07:10:18;;;;;;;15.45;8.05;;;4.50;99.90;;;;;;4941211;28;91330;-31
2022/03/19 07:12:46;;;;;;;22.50;9.98;;;4.60;99.90;;;;;;4942172;28;90396;-34
2022/03/19 07:15:17;;;;;;;21.10;10.35;;;4.70;99.90;;;;;;4941230;28;87972;-31
2022/03/19 07:17:43;;;;;;;19.20;10.73;;;4.80;99.90;;;;;;4940720;28;90684;-33
2022/03/19 07:20:16;;;;;;;16.95;8.60;;;5.00;99.90;;;;;;4941609;28;89739;-36
2022/03/19 07:22:50;;;;;;;18.67;8.88;;;5.10;99.90;;;;;;4942374;28;89928;-30
2022/03/19 07:25:17;;;;;;;23.20;9.40;;;5.30;99.90;;;;;;4943152;28;89252;-31
2022/03/19 07:27:43;;;;;;;18.63;11.23;;;5.40;99.90;;;;;;4941447;28;90335;-31
2022/03/19 07:30:09;;;;;;;16.33;9.85;;;5.50;99.90;;;;;;4940932;28;89284;-35
2022/03/19 07:32:35;;;;;;;14.43;10.48;;;5.70;99.90;;;;;;4942050;28;91057;-35
2022/03/19 07:35:01;;;;;;;18.42;9.25;;;5.80;99.90;;;;;;4940484;28;88406;-35
2022/03/19 07:37:28;;;;;;;18.88;9.73;;;5.80;99.90;;;;;;4942310;28;89022;-32
2022/03/19 07:39:56;;;;;;;13.25;7.65;;;5.90;99.90;;;;;;4941770;28;89781;-33
2022/03/19 07:42:21;;;;;;;20.50;8.98;;;6.10;99.90;;;;;;4941462;28;89107;-33
2022/03/19 07:44:47;;;;;;;12.77;8.88;;;6.30;99.90;;;;;;4942240;28;90044;-36
2022/03/19 07:47:13;;;;;;;22.42;10.52;;;6.40;99.90;;;;;;4942053;28;90250;-33
2022/03/19 07:49:39;;;;;;;20.35;9.55;;;6.50;99.90;;;;;;4940877;28;89887;-31
2022/03/19 07:52:06;;;;;;;25.08;9.43;;;6.60;99.90;;;;;;4942064;28;89858;-34
2022/03/19 07:54:32;;;;;;;14.77;8.27;;;6.70;99.90;;;;;;4941655;28;88526;-33
2022/03/19 07:56:58;;;;;;;18.58;9.45;;;6.80;99.90;;;;;;4941012;28;90968;-32
2022/03/19 07:59:24;;;;;;;14.35;8.82;;;7.00;99.90;;;;;;4941784;28;91417;-32
2022/03/19 08:01:49;;;;;;;17.75;10.18;;;7.10;99.90;;;;;;4940960;28;90726;-35
2022/03/19 08:04:16;;;;;;;14.98;7.82;;;7.30;99.90;;;;;;4940826;28;89173;-34
2022/03/19 08:06:42;;;;;;;21.38;8.52;;;7.40;99.90;;;;;;4941474;28;89283;-30
2022/03/19 08:09:10;;;;;;;14.10;6.68;;;7.50;99.90;;;;;;4941265;28;89649;-30
2022/03/19 08:11:36;;;;;;;10.57;7.80;;;7.70;99.90;;;;;;4941510;28;89042;-36
2022/03/19 08:14:02;;;;;;;18.67;8.02;;;7.70;99.90;;;;;;4941426;28;88256;-33
2022/03/19 08:16:28;;;;;;;14.95;7.15;;;7.90;99.90;;;;;;4940650;28;90160;-36
2022/03/19 08:18:54;;;;;;;21.00;7.93;;;8.00;99.90;;;;;;4941237;28;89369;-34
2022/03/19 08:21:20;;;;;;;11.82;8.52;;;8.00;99.90;;;;;;4941580;28;89730;-32
2022/03/19 08:23:47;;;;;;;14.65;8.35;;;8.10;99.90;;;;;;4940698;28;89741;-32
2022/03/19 08:26:13;;;;;;;18.75;7.63;;;8.30;99.90;;;;;;4941111;28;90121;-33
2022/03/19 08:28:38;;;;;;;15.05;7.32;;;8.50;99.90;;;;;;4940727;28;89283;-34
2022/03/19 08:31:04;;;;;;;13.38;6.20;;;8.60;99.90;;;;;;4940947;28;89465;-32
2022/03/19 08:33:30;;;;;;;15.43;6.93;;;8.70;99.90;;;;;;4939986;28;89242;-31
2022/03/19 08:35:56;;;;;;;17.88;7.57;;;8.70;99.90;;;;;;4943580;28;88786;-32
2022/03/19 08:41:05;;;;;;;16.23;6.07;;;9.00;99.90;;;;;;4958616;28;89366;-35
2022/03/19 08:43:31;;;;;;;13.57;6.50;;;9.10;99.90;;;;;;4958543;28;88733;-34
2022/03/19 08:45:58;;;;;;;6.70;5.22;;;9.30;99.90;;;;;;4958422;28;90342;-33
2022/03/19 08:48:24;;;;;;;13.05;6.10;;;9.30;99.90;;;;;;4958057;28;90608;-31
2022/03/19 08:50:49;;;;;;;9.15;4.68;;;9.20;99.90;;;;;;4958207;28;90762;-36
2022/03/19 08:53:16;;;;;;;10.50;5.22;;;9.40;99.90;;;;;;4957911;28;88377;-35
2022/03/19 08:55:42;;;;;;;8.88;4.75;;;9.40;99.90;;;;;;4958257;28;90460;-36
2022/03/19 08:58:08;;;;;;;12.57;5.05;;;9.50;99.90;;;;;;4956677;28;89621;-35
2022/03/19 09:00:34;;;;;;;9.32;5.07;;;9.60;99.90;;;;;;4938227;28;89480;-36
2022/03/19 09:03:00;;;;;;;17.92;4.68;;;9.60;99.90;;;;;;4938550;28;89479;-37
2022/03/19 09:05:30;;;;;;;17.05;4.78;;;9.70;99.90;;;;;;4938414;28;90120;-33
2022/03/19 09:07:56;;;;;;;9.70;5.70;;;9.60;99.90;;;;;;4938189;28;89865;-34
2022/03/19 09:10:22;;;;;;;10.45;4.38;;;9.80;99.90;;;;;;4937781;28;89755;-32
2022/03/19 09:12:47;;;;;;;13.13;4.43;;;9.90;99.90;;;;;;4938322;28;89107;-33
2022/03/19 09:15:13;;;;;;;17.15;6.75;;;9.90;99.90;;;;;;4937791;28;90290;-34
2022/03/19 09:17:39;;;;;;;15.65;5.20;;;10.00;99.90;;;;;;4937208;28;89989;-35
2022/03/19 09:20:06;;;;;;;12.52;4.88;;;10.00;99.90;;;;;;4937823;28;89195;-34
2022/03/19 09:22:32;;;;;;;12.05;5.03;;;10.20;99.90;;;;;;4938142;28;88962;-34
2022/03/19 09:24:57;;;;;;;8.18;4.40;;;10.20;99.90;;;;;;4938234;28;89701;-32
2022/03/19 09:27:23;;;;;;;11.75;4.85;;;10.10;99.90;;;;;;4937783;28;89916;-32
2022/03/19 09:29:49;;;;;;;6.20;4.28;;;10.20;99.90;;;;;;4937427;28;89686;-34
2022/03/19 09:32:17;;;;;;;11.18;4.60;;;10.30;99.90;;;;;;4938029;28;88221;-33
2022/03/19 09:34:47;;;;;;;;;;;10.30;99.90;;;;;;4945507;28;90365;-31
2022/03/19 09:37:14;;;;;;;13.07;4.65;;;10.40;94.00;;;;;;4957990;28;89948;-34
2022/03/19 09:39:40;;;;;;;10.23;4.80;;;10.50;97.00;;;;;;4956512;28;90240;-36
2022/03/19 09:42:10;;;;;;;6.95;3.95;;;10.50;96.70;;;;;;4957338;28;89462;-34
2022/03/19 09:44:36;;;;;;;9.90;4.82;;;10.60;96.00;;;;;;4957699;28;90518;-33
2022/03/19 09:47:02;;;;;;;8.23;5.72;;;10.60;87.40;;;;;;4957231;28;89833;-33
2022/03/19 09:49:28;;;;;;;7.35;4.60;;;10.60;97.90;;;;;;4957741;28;89203;-33
2022/03/19 09:51:55;;;;;;;11.95;4.70;;;10.70;99.90;;;;;;4957093;28;89263;-33
2022/03/19 09:54:23;;;;;;;11.65;5.97;;;10.80;99.70;;;;;;4957257;28;90581;-34
2022/03/19 09:56:49;;;;;;;12.13;5.20;;;10.90;93.90;;;;;;4957160;28;89559;-34
2022/03/19 09:59:15;;;;;;;13.63;5.00;;;10.80;99.90;;;;;;4957049;28;88414;-38
2022/03/19 10:01:40;;;;;;;10.27;4.70;;;11.00;85.60;;;;;;4956972;28;89222;-32
2022/03/19 10:04:12;;;;;;;10.27;5.15;;;11.10;90.30;;;;;;4956983;28;90480;-36
2022/03/19 10:09:52;;;;;;;8.10;4.63;;;11.20;93.00;;;;;;4957234;28;89537;-34
2022/03/19 10:12:21;;;;;;;8.60;3.40;;;11.20;82.00;;;;;;4957233;28;87398;-32
2022/03/19 10:14:53;;;;;;;;;;;11.20;75.90;;;;;;4956583;28;90302;-35
2022/03/19 10:17:45;;;;;;;6.72;4.40;;;11.30;77.90;;;;;;4958664;28;88974;-31
2022/03/19 10:20:12;;;;;;;5.45;3.90;;;11.40;78.90;;;;;;4955971;28;90045;-35
2022/03/19 10:22:42;;;;;;;6.67;3.93;;;11.40;75.00;;;;;;4956809;28;87998;-35
2022/03/19 10:25:10;;;;;;;7.75;3.28;;;11.40;73.00;;;;;;4957222;28;91780;-34
2022/03/19 10:27:38;;;;;;;11.32;4.13;;;11.40;70.20;;;;;;4955381;28;89696;-32
2022/03/19 10:30:09;;;;;;;4.70;3.15;;;11.50;72.20;;;;;;4959736;28;90533;-34
2022/03/19 10:32:37;;;;;;;9.45;3.70;;;11.60;69.30;;;;;;4960334;28;89252;-33
2022/03/19 10:35:03;;;;;;;5.55;2.95;;;11.60;67.40;;;;;;4960200;28;90026;-35
2022/03/19 10:37:34;;;;;;;7.57;3.22;;;11.60;66.60;;;;;;4959997;28;89729;-36
2022/03/19 10:40:01;;;;;;;10.10;3.83;;;11.60;67.20;;;;;;4960326;28;89826;-32
2022/03/19 10:42:35;;;;;;;9.25;3.15;;;11.70;64.90;;;;;;4960108;28;87853;-33
2022/03/19 10:45:01;;;;;;;4.90;3.13;;;11.80;67.40;;;;;;4960260;28;90066;-33
2022/03/19 10:47:26;;;;;;;7.95;2.80;;;11.90;68.60;;;;;;4960007;28;89467;-37
2022/03/19 10:49:59;;;;;;;3.65;2.63;;;11.90;62.00;;;;;;4960490;28;89330;-31
2022/03/19 10:52:27;;;;;;;10.23;3.63;;;11.90;63.50;;;;;;4960278;28;89219;-32
2022/03/19 10:54:55;;;;;;;7.07;2.40;;;12.00;63.60;;;;;;4959544;28;89302;-34
2022/03/19 10:57:21;;;;;;;4.10;2.70;;;12.10;62.50;;;;;;4959256;28;90301;-35
2022/03/19 10:59:46;;;;;;;5.63;3.05;;;12.10;59.90;;;;;;4959481;28;89584;-36
2022/03/19 11:02:15;;;;;;;3.97;3.22;;;12.00;58.50;;;;;;4959679;28;88976;-32
2022/03/19 11:04:42;;;;;;;3.90;1.73;;;12.10;61.10;;;;;;4959671;28;90945;-34
2022/03/19 11:07:10;;;;;;;4.85;2.75;;;12.10;58.40;;;;;;4959811;28;90109;-32
2022/03/19 11:09:38;;;;;;;2.58;1.85;;;12.20;58.90;;;;;;4959225;28;89060;-32
2022/03/19 11:12:07;;;;;;;3.08;2.47;;;12.20;59.20;;;;;;4960003;28;88467;-36
2022/03/19 11:14:36;;;;;;;2.63;2.03;;;12.30;62.50;;;;;;4959452;28;90527;-35
2022/03/19 11:17:24;;;;;;;13.65;3.33;;;12.40;58.80;;;;;;4958384;28;90710;-33
2022/03/19 11:19:52;;;;;;;3.47;2.13;;;12.50;61.50;;;;;;4958589;28;90651;-36
2022/03/19 11:22:18;;;;;;;4.82;2.15;;;12.50;57.50;;;;;;4959752;28;89478;-34
2022/03/19 11:25:07;;;;;;;4.38;2.20;;;12.60;59.70;;;;;;4959666;28;91537;-34
2022/03/19 11:27:36;;;;;;;3.42;2.47;;;12.70;56.90;;;;;;4957109;28;89738;-33
2022/03/19 11:30:04;;;;;;;4.05;2.20;;;12.60;58.40;;;;;;4958598;28;89378;-32
2022/03/19 11:32:30;;;;;;;3.63;3.03;;;12.60;58.20;;;;;;4959186;28;88089;-34
2022/03/19 11:34:59;;;;;;;3.67;2.47;;;12.70;60.40;;;;;;4959261;28;90059;-32
2022/03/19 11:38:05;;;;;;;5.55;2.63;;;12.80;58.30;;;;;;4958977;28;89722;-36
2022/03/19 11:40:36;;;;;;;8.52;3.15;;;12.60;58.30;;;;;;4954907;28;89869;-35
2022/03/19 11:43:07;;;;;;;1.98;1.80;;;12.60;57.60;;;;;;4955477;28;90408;-33
2022/03/19 11:45:53;;;;;;;6.47;2.55;;;12.60;57.50;;;;;;4957018;28;90865;-36
2022/03/19 11:48:43;;;;;;;3.97;2.80;;;12.70;56.20;;;;;;4959305;28;89723;-35
2022/03/19 11:51:13;;;;;;;5.32;2.60;;;12.70;56.60;;;;;;4958488;28;89187;-36
2022/03/19 11:54:12;;;;;;;10.18;2.83;;;12.60;56.90;;;;;;4958469;28;87509;-34
2022/03/19 11:56:41;;;;;;;6.28;2.58;;;12.70;58.70;;;;;;4958262;28;90188;-37
2022/03/19 11:59:27;;;;;;;2.00;1.70;;;12.70;57.10;;;;;;4958793;28;90154;-37
2022/03/19 12:02:14;;;;;;;5.88;3.17;;;12.70;57.50;;;;;;4958208;28;89898;-35
2022/03/19 12:04:48;;;;;;;4.07;2.33;;;12.70;55.00;;;;;;4959564;28;87947;-34
2022/03/19 12:07:39;;;;;;;2.97;1.80;;;12.70;55.00;;;;;;4958116;28;91117;-34
2022/03/19 12:10:20;;;;;;;6.07;2.80;;;12.80;53.90;;;;;;4957738;28;90650;-37
2022/03/19 12:12:47;;;;;;;4.97;1.63;;;12.80;55.00;;;;;;4957613;28;90012;-36
2022/03/19 12:15:31;;;;;;;6.93;2.30;;;12.80;54.90;;;;;;4993347;22;88199;-37
2022/03/19 12:18:24;;;;;;;2.60;2.00;;;12.90;53.90;;;;;;4958066;28;90244;-35
2022/03/19 12:20:51;;;;;;;3.67;2.05;;;12.80;54.30;;;;;;4958131;28;90490;-35
2022/03/19 12:23:17;;;;;;;3.70;2.58;;;12.80;54.90;;;;;;4958637;28;89074;-38
2022/03/19 12:26:02;;;;;;;8.07;3.03;;;12.80;55.80;;;;;;4959091;28;89168;-35
2022/03/19 12:28:29;;;;;;;3.03;2.42;;;12.90;53.70;;;;;;4958474;28;90367;-37
2022/03/19 12:31:02;;;;;;;5.78;2.13;;;12.90;55.50;;;;;;4958487;28;89920;-34
2022/03/19 12:33:31;;;;;;;6.07;2.63;;;12.90;53.60;;;;;;4957998;28;90374;-36
2022/03/19 12:35:58;;;;;;;4.18;2.17;;;12.80;56.00;;;;;;4957502;28;89731;-35
2022/03/19 12:38:32;;;;;;;4.63;2.50;;;12.90;57.10;;;;;;4958098;28;90101;-37
2022/03/19 12:43:43;;;;;;;2.05;1.85;;;12.80;56.00;;;;;;4957927;28;89608;-36
2022/03/19 12:46:09;;;;;;;6.28;1.90;;;12.90;57.20;;;;;;4958970;28;89024;-36
2022/03/19 12:48:39;;;;;;;3.15;2.47;;;13.00;55.00;;;;;;4956059;28;89790;-37
2022/03/19 12:51:05;;;;;;;4.07;2.08;;;13.00;55.90;;;;;;4957076;28;90278;-34
2022/03/19 12:53:35;;;;;;;4.57;2.45;;;13.00;56.90;;;;;;4958732;28;89750;-35
2022/03/19 12:56:12;;;;;;;6.63;2.13;;;12.90;53.90;;;;;;4958202;28;88403;-35
2022/03/19 12:58:39;;;;;;;10.52;2.10;;;13.00;53.30;;;;;;4958067;28;90674;-35
2022/03/19 13:01:07;;;;;;;2.53;1.52;;;13.00;51.10;;;;;;4956016;28;91530;-35
2022/03/19 13:03:33;;;;;;;5.90;1.90;;;13.00;51.00;;;;;;4958007;28;90365;-35
2022/03/19 13:05:59;;;;;;;3.30;1.83;;;12.90;51.70;;;;;;4958782;28;88170;-36
2022/03/19 13:08:24;;;;;;;8.90;2.55;;;12.90;50.20;;;;;;4957435;28;90291;-37